createdAt,value
2018-02-18T00:00:37.014Z,0
2018-02-18T00:01:17.514Z,0
2018-02-18T00:01:58.049Z,0
2018-02-18T00:02:38.593Z,0
2018-02-18T00:03:19.173Z,0
2018-02-18T00:03:59.736Z,0
2018-02-18T00:04:40.304Z,0
2018-02-18T00:05:20.892Z,0
2018-02-18T00:06:01.435Z,0
2018-02-18T00:06:42.024Z,0
2018-02-18T00:07:22.605Z,0
2018-02-18T00:08:03.158Z,0
2018-02-18T00:08:43.713Z,0
2018-02-18T00:09:24.277Z,0
2018-02-18T00:10:04.847Z,0
2018-02-18T00:10:45.405Z,0
2018-02-18T00:11:25.965Z,0
2018-02-18T00:12:06.513Z,0
2018-02-18T00:12:47.039Z,0
2018-02-18T00:13:27.598Z,0
2018-02-18T00:14:08.148Z,0
2018-02-18T00:14:48.709Z,0
2018-02-18T00:15:29.281Z,0
2018-02-18T00:16:09.838Z,0
2018-02-18T00:16:50.394Z,0
2018-02-18T00:17:30.951Z,0
2018-02-18T00:18:11.529Z,0
2018-02-18T00:18:52.096Z,0
2018-02-18T00:19:32.666Z,0
2018-02-18T00:20:13.233Z,0
2018-02-18T00:20:53.803Z,0
2018-02-18T00:21:34.352Z,0
2018-02-18T00:22:14.883Z,0
2018-02-18T00:22:55.438Z,0
2018-02-18T00:23:35.989Z,0
2018-02-18T00:24:16.557Z,0
2018-02-18T00:24:57.111Z,0
2018-02-18T00:25:37.680Z,0
2018-02-18T00:26:18.259Z,0
2018-02-18T00:26:58.815Z,0
2018-02-18T00:27:39.365Z,0
2018-02-18T00:28:19.929Z,0
2018-02-18T00:29:00.482Z,0
2018-02-18T00:29:41.056Z,0
2018-02-18T00:30:21.620Z,0
2018-02-18T00:31:02.180Z,0
2018-02-18T00:31:42.733Z,0
2018-02-18T00:32:23.316Z,0
2018-02-18T00:33:03.882Z,0
2018-02-18T00:33:44.439Z,0
2018-02-18T00:34:25.020Z,0
2018-02-18T00:35:05.582Z,0
2018-02-18T00:35:46.140Z,0
2018-02-18T00:36:26.694Z,0
2018-02-18T00:37:07.263Z,0
2018-02-18T00:37:47.812Z,0
2018-02-18T00:38:28.397Z,0
2018-02-18T00:39:08.959Z,0
2018-02-18T00:39:49.529Z,0
2018-02-18T00:40:30.077Z,0
2018-02-18T00:41:10.639Z,0
2018-02-18T00:41:51.201Z,0
2018-02-18T00:42:31.760Z,0
2018-02-18T00:43:12.332Z,0
2018-02-18T00:43:52.886Z,0
2018-02-18T00:44:33.436Z,0
2018-02-18T00:45:14.000Z,0
2018-02-18T00:45:54.570Z,0
2018-02-18T00:46:35.138Z,0
2018-02-18T00:47:15.684Z,0
2018-02-18T00:47:56.250Z,0
2018-02-18T00:48:36.809Z,0
2018-02-18T00:49:17.362Z,0
2018-02-18T00:49:57.918Z,0
2018-02-18T00:50:38.505Z,0
2018-02-18T00:51:19.042Z,0
2018-02-18T00:51:59.632Z,0
2018-02-18T00:52:40.161Z,0
2018-02-18T00:53:20.710Z,0
2018-02-18T00:54:01.261Z,0
2018-02-18T00:54:41.816Z,0
2018-02-18T00:55:22.378Z,0
2018-02-18T00:56:02.936Z,0
2018-02-18T00:56:43.500Z,0
2018-02-18T00:57:24.062Z,0
2018-02-18T00:58:04.606Z,0
2018-02-18T00:58:45.153Z,0
2018-02-18T00:59:25.716Z,0
2018-02-18T01:00:06.270Z,0
2018-02-18T01:00:46.836Z,0
2018-02-18T01:01:27.426Z,0
2018-02-18T01:02:07.977Z,0
2018-02-18T01:02:48.528Z,0
2018-02-18T01:03:29.083Z,0
2018-02-18T01:04:10.411Z,0
2018-02-18T01:04:50.976Z,0
2018-02-18T01:05:31.560Z,0
2018-02-18T01:06:12.128Z,0
2018-02-18T01:06:52.682Z,0
2018-02-18T01:07:33.241Z,0
2018-02-18T01:08:14.928Z,0
2018-02-18T01:08:55.000Z,0
2018-02-18T01:09:35.543Z,0
2018-02-18T01:10:16.351Z,0
2018-02-18T01:10:56.920Z,0
2018-02-18T01:11:38.049Z,0
2018-02-18T01:12:18.601Z,0
2018-02-18T01:12:59.156Z,0
2018-02-18T01:13:39.712Z,0
2018-02-18T01:14:20.324Z,0
2018-02-18T01:15:00.880Z,0
2018-02-18T01:15:41.447Z,0
2018-02-18T01:16:22.022Z,0
2018-02-18T01:17:02.585Z,0
2018-02-18T01:17:43.154Z,0
2018-02-18T01:18:23.719Z,0
2018-02-18T01:19:04.276Z,0
2018-02-18T01:19:44.852Z,0
2018-02-18T01:20:25.442Z,0
2018-02-18T01:21:06.000Z,0
2018-02-18T01:21:47.434Z,0
2018-02-18T01:22:28.677Z,0
2018-02-18T01:23:10.238Z,0
2018-02-18T01:23:50.797Z,0
2018-02-18T01:24:31.376Z,0
2018-02-18T01:25:11.931Z,0
2018-02-18T01:25:52.475Z,0
2018-02-18T01:26:33.706Z,0
2018-02-18T01:27:15.322Z,0
2018-02-18T01:27:55.858Z,0
2018-02-18T01:28:36.676Z,0
2018-02-18T01:29:17.164Z,0
2018-02-18T01:29:57.733Z,0
2018-02-18T01:30:38.275Z,0
2018-02-18T01:31:18.846Z,0
2018-02-18T01:31:59.386Z,0
2018-02-18T01:32:39.947Z,0
2018-02-18T01:33:20.509Z,0
2018-02-18T01:34:01.872Z,0
2018-02-18T01:34:42.445Z,0
2018-02-18T01:35:23.938Z,0
2018-02-18T01:36:03.595Z,0
2018-02-18T01:36:44.183Z,0
2018-02-18T01:37:24.731Z,0
2018-02-18T01:38:05.282Z,0
2018-02-18T01:38:46.461Z,0
2018-02-18T01:39:27.056Z,0
2018-02-18T01:40:07.610Z,0
2018-02-18T01:40:49.438Z,0
2018-02-18T01:41:30.041Z,0
2018-02-18T01:42:10.583Z,0
2018-02-18T01:42:51.132Z,0
2018-02-18T01:43:31.667Z,0
2018-02-18T01:44:12.932Z,0
2018-02-18T01:44:54.437Z,0
2018-02-18T01:45:34.023Z,0
2018-02-18T01:46:14.585Z,0
2018-02-18T01:46:55.131Z,0
2018-02-18T01:47:35.684Z,0
2018-02-18T01:48:16.254Z,0
2018-02-18T01:48:56.809Z,0
2018-02-18T01:49:37.358Z,0
2018-02-18T01:50:17.914Z,0
2018-02-18T01:50:58.461Z,0
2018-02-18T01:51:38.999Z,0
2018-02-18T01:52:19.548Z,0
2018-02-18T01:53:00.047Z,0
2018-02-18T01:53:40.620Z,0
2018-02-18T01:54:21.114Z,0
2018-02-18T01:55:01.645Z,0
2018-02-18T01:55:42.177Z,0
2018-02-18T01:56:22.707Z,0
2018-02-18T01:57:03.224Z,0
2018-02-18T01:57:44.458Z,0
2018-02-18T01:58:24.377Z,0
2018-02-18T01:59:05.550Z,0
2018-02-18T01:59:47.018Z,0
2018-02-18T02:00:27.561Z,0
2018-02-18T02:01:08.130Z,0
2018-02-18T02:01:48.675Z,0
2018-02-18T02:02:30.440Z,0
2018-02-18T02:03:10.364Z,0
2018-02-18T02:03:50.936Z,0
2018-02-18T02:04:31.492Z,0
2018-02-18T02:05:12.028Z,0
2018-02-18T02:05:52.554Z,0
2018-02-18T02:06:33.112Z,0
2018-02-18T02:07:14.567Z,0
2018-02-18T02:07:55.933Z,0
2018-02-18T02:08:36.492Z,0
2018-02-18T02:09:17.040Z,0
2018-02-18T02:09:57.593Z,0
2018-02-18T02:10:38.117Z,0
2018-02-18T02:11:18.629Z,0
2018-02-18T02:11:59.943Z,0
2018-02-18T02:12:39.742Z,0
2018-02-18T02:13:20.264Z,0
2018-02-18T02:14:00.822Z,0
2018-02-18T02:14:41.326Z,0
2018-02-18T02:15:21.842Z,0
2018-02-18T02:16:02.955Z,0
2018-02-18T02:16:43.555Z,0
2018-02-18T02:17:24.083Z,0
2018-02-18T02:18:04.628Z,0
2018-02-18T02:18:45.157Z,0
2018-02-18T02:19:25.701Z,0
2018-02-18T02:20:06.247Z,0
2018-02-18T02:20:46.735Z,0
2018-02-18T02:21:27.290Z,0
2018-02-18T02:22:07.839Z,0
2018-02-18T02:22:48.402Z,0
2018-02-18T02:23:28.926Z,0
2018-02-18T02:24:09.463Z,0
2018-02-18T02:24:50.643Z,0
2018-02-18T02:25:31.120Z,0
2018-02-18T02:26:11.680Z,0
2018-02-18T02:26:52.884Z,0
2018-02-18T02:27:33.410Z,0
2018-02-18T02:28:13.947Z,0
2018-02-18T02:28:54.473Z,0
2018-02-18T02:29:35.012Z,0
2018-02-18T02:30:15.581Z,0
2018-02-18T02:30:56.079Z,0
2018-02-18T02:31:36.574Z,0
2018-02-18T02:32:17.117Z,0
2018-02-18T02:32:57.697Z,0
2018-02-18T02:33:38.217Z,0
2018-02-18T02:34:18.834Z,0
2018-02-18T02:34:59.349Z,0
2018-02-18T02:35:39.890Z,0
2018-02-18T02:36:20.405Z,0
2018-02-18T02:37:00.914Z,0
2018-02-18T02:37:41.458Z,0
2018-02-18T02:38:21.954Z,0
2018-02-18T02:39:05.071Z,0
2018-02-18T02:39:45.559Z,0
2018-02-18T02:40:26.116Z,0
2018-02-18T02:41:06.677Z,0
2018-02-18T02:41:47.223Z,0
2018-02-18T02:42:27.732Z,0
2018-02-18T02:43:08.277Z,0
2018-02-18T02:43:48.865Z,0
2018-02-18T02:44:29.425Z,0
2018-02-18T02:45:09.987Z,0
2018-02-18T02:45:50.560Z,0
2018-02-18T02:46:31.119Z,0
2018-02-18T02:47:11.666Z,0
2018-02-18T02:47:52.232Z,0
2018-02-18T02:48:32.783Z,0
2018-02-18T02:49:13.335Z,0
2018-02-18T02:49:53.884Z,0
2018-02-18T02:50:34.471Z,0
2018-02-18T02:51:15.025Z,0
2018-02-18T02:51:55.588Z,0
2018-02-18T02:52:36.142Z,0
2018-02-18T02:53:16.694Z,0
2018-02-18T02:53:57.256Z,0
2018-02-18T02:54:37.816Z,0
2018-02-18T02:55:18.370Z,0
2018-02-18T02:55:59.466Z,0
2018-02-18T02:56:40.026Z,0
2018-02-18T02:57:20.609Z,0
2018-02-18T02:58:01.161Z,0
2018-02-18T02:58:41.731Z,0
2018-02-18T02:59:22.273Z,0
2018-02-18T03:00:02.842Z,0
2018-02-18T03:00:43.958Z,0
2018-02-18T03:01:23.948Z,0
2018-02-18T03:02:04.548Z,0
2018-02-18T03:02:45.093Z,0
2018-02-18T03:03:25.665Z,0
2018-02-18T03:04:06.220Z,0
2018-02-18T03:04:46.774Z,0
2018-02-18T03:05:27.333Z,0
2018-02-18T03:06:07.891Z,0
2018-02-18T03:06:49.320Z,0
2018-02-18T03:07:29.900Z,0
2018-02-18T03:08:10.465Z,0
2018-02-18T03:08:51.025Z,0
2018-02-18T03:09:31.592Z,0
2018-02-18T03:10:12.146Z,0
2018-02-18T03:10:52.698Z,0
2018-02-18T03:11:33.266Z,0
2018-02-18T03:12:13.813Z,0
2018-02-18T03:12:54.373Z,0
2018-02-18T03:13:34.931Z,0
2018-02-18T03:14:15.488Z,0
2018-02-18T03:14:56.056Z,0
2018-02-18T03:15:36.628Z,0
2018-02-18T03:16:17.189Z,0
2018-02-18T03:16:58.523Z,0
2018-02-18T03:17:38.321Z,0
2018-02-18T03:18:18.876Z,0
2018-02-18T03:18:59.413Z,0
2018-02-18T03:19:39.974Z,0
2018-02-18T03:20:20.566Z,0
2018-02-18T03:21:01.105Z,0
2018-02-18T03:21:41.681Z,0
2018-02-18T03:22:22.238Z,0
2018-02-18T03:23:02.800Z,0
2018-02-18T03:23:43.392Z,0
2018-02-18T03:24:23.944Z,0
2018-02-18T03:25:04.498Z,0
2018-02-18T03:25:45.094Z,0
2018-02-18T03:26:25.624Z,0
2018-02-18T03:27:06.180Z,0
2018-02-18T03:27:46.745Z,0
2018-02-18T03:28:27.298Z,0
2018-02-18T03:29:11.576Z,0
2018-02-18T03:29:52.309Z,0
2018-02-18T03:30:32.845Z,0
2018-02-18T03:31:14.241Z,0
2018-02-18T03:31:54.798Z,0
2018-02-18T03:32:35.352Z,0
2018-02-18T03:33:15.915Z,0
2018-02-18T03:33:56.480Z,0
2018-02-18T03:34:37.035Z,0
2018-02-18T03:35:17.618Z,0
2018-02-18T03:35:58.165Z,0
2018-02-18T03:36:38.724Z,0
2018-02-18T03:37:19.280Z,0
2018-02-18T03:37:59.840Z,0
2018-02-18T03:38:40.407Z,0
2018-02-18T03:39:20.968Z,0
2018-02-18T03:40:01.557Z,0
2018-02-18T03:40:42.113Z,0
2018-02-18T03:41:22.689Z,0
2018-02-18T03:42:03.243Z,0
2018-02-18T03:42:43.808Z,0
2018-02-18T03:43:24.369Z,0
2018-02-18T03:44:04.930Z,0
2018-02-18T03:44:45.492Z,0
2018-02-18T03:45:26.055Z,0
2018-02-18T03:46:06.613Z,0
2018-02-18T03:46:47.145Z,0
2018-02-18T03:47:27.692Z,0
2018-02-18T03:48:08.253Z,0
2018-02-18T03:48:48.816Z,0
2018-02-18T03:49:29.374Z,0
2018-02-18T03:50:09.933Z,0
2018-02-18T03:50:50.484Z,0
2018-02-18T03:51:31.036Z,0
2018-02-18T03:52:11.644Z,0
2018-02-18T03:52:52.210Z,0
2018-02-18T03:53:32.770Z,0
2018-02-18T03:54:13.320Z,0
2018-02-18T03:54:53.886Z,0
2018-02-18T03:55:34.447Z,0
2018-02-18T03:56:15.007Z,0
2018-02-18T03:56:55.543Z,0
2018-02-18T03:57:36.104Z,0
2018-02-18T03:58:16.670Z,0
2018-02-18T03:58:57.225Z,0
2018-02-18T03:59:37.778Z,0
2018-02-18T04:00:18.340Z,0
2018-02-18T04:00:58.901Z,0
2018-02-18T04:01:39.459Z,0
2018-02-18T04:02:20.616Z,0
2018-02-18T04:03:01.969Z,0
2018-02-18T04:03:56.500Z,0
2018-02-18T04:04:37.049Z,0
2018-02-18T04:05:17.602Z,0
2018-02-18T04:05:58.145Z,0
2018-02-18T04:06:38.689Z,0
2018-02-18T04:07:19.265Z,0
2018-02-18T04:07:59.823Z,0
2018-02-18T04:08:40.374Z,0
2018-02-18T04:09:20.936Z,0
2018-02-18T04:10:01.500Z,0
2018-02-18T04:10:42.043Z,0
2018-02-18T04:11:22.600Z,0
2018-02-18T04:12:03.150Z,0
2018-02-18T04:12:43.698Z,0
2018-02-18T04:13:24.247Z,0
2018-02-18T04:14:04.803Z,0
2018-02-18T04:14:45.353Z,0
2018-02-18T04:15:25.900Z,0
2018-02-18T04:16:07.467Z,0
2018-02-18T04:16:47.054Z,0
2018-02-18T04:17:27.623Z,0
2018-02-18T04:18:10.893Z,0
2018-02-18T04:18:52.968Z,0
2018-02-18T04:19:44.979Z,0
2018-02-18T04:20:24.115Z,0
2018-02-18T04:21:12.474Z,0
2018-02-18T04:21:53.058Z,0
2018-02-18T04:22:33.644Z,0
2018-02-18T04:23:14.194Z,0
2018-02-18T04:23:54.750Z,0
2018-02-18T04:24:35.320Z,0
2018-02-18T04:25:15.896Z,0
2018-02-18T04:25:56.450Z,0
2018-02-18T04:26:37.010Z,0
2018-02-18T04:27:17.566Z,0
2018-02-18T04:27:58.127Z,0
2018-02-18T04:28:38.676Z,0
2018-02-18T04:29:19.228Z,0
2018-02-18T04:29:59.776Z,0
2018-02-18T04:30:40.338Z,0
2018-02-18T04:31:20.894Z,0
2018-02-18T04:32:01.468Z,0
2018-02-18T04:32:42.058Z,0
2018-02-18T04:33:22.585Z,0
2018-02-18T04:34:03.129Z,0
2018-02-18T04:34:43.691Z,0
2018-02-18T04:35:24.271Z,0
2018-02-18T04:36:04.841Z,0
2018-02-18T04:36:45.416Z,0
2018-02-18T04:37:25.963Z,0
2018-02-18T04:38:06.530Z,0
2018-02-18T04:38:47.090Z,0
2018-02-18T04:39:27.646Z,0
2018-02-18T04:40:08.222Z,0
2018-02-18T04:40:48.782Z,0
2018-02-18T04:41:29.336Z,0
2018-02-18T04:42:09.896Z,0
2018-02-18T04:42:50.447Z,0
2018-02-18T04:43:31.003Z,0
2018-02-18T04:44:11.568Z,0
2018-02-18T04:44:52.127Z,0
2018-02-18T04:45:32.705Z,0
2018-02-18T04:46:13.261Z,0
2018-02-18T04:46:53.838Z,0
2018-02-18T04:47:34.402Z,0
2018-02-18T04:48:14.957Z,0
2018-02-18T04:48:55.503Z,0
2018-02-18T04:49:36.064Z,0
2018-02-18T04:50:22.001Z,0
2018-02-18T04:51:03.494Z,0
2018-02-18T04:51:45.624Z,0
2018-02-18T04:52:29.743Z,0
2018-02-18T04:53:10.317Z,0
2018-02-18T04:53:50.872Z,0
2018-02-18T04:54:31.430Z,0
2018-02-18T04:55:11.984Z,0
2018-02-18T04:55:52.525Z,0
2018-02-18T04:56:33.075Z,0
2018-02-18T04:57:13.632Z,0
2018-02-18T04:57:54.207Z,0
2018-02-18T04:58:34.778Z,0
2018-02-18T04:59:15.347Z,0
2018-02-18T04:59:55.918Z,0
2018-02-18T05:00:36.473Z,0
2018-02-18T05:01:17.051Z,0
2018-02-18T05:01:57.590Z,0
2018-02-18T05:02:38.160Z,0
2018-02-18T05:03:18.725Z,0
2018-02-18T05:03:59.270Z,0
2018-02-18T05:04:39.816Z,0
2018-02-18T05:05:20.365Z,0
2018-02-18T05:06:00.938Z,0
2018-02-18T05:06:41.489Z,0
2018-02-18T05:07:22.040Z,0
2018-02-18T05:08:05.019Z,0
2018-02-18T05:08:45.558Z,0
2018-02-18T05:09:27.977Z,0
2018-02-18T05:10:09.504Z,0
2018-02-18T05:10:50.719Z,0
2018-02-18T05:11:31.320Z,0
2018-02-18T05:12:12.479Z,0
2018-02-18T05:12:53.003Z,0
2018-02-18T05:13:33.552Z,0
2018-02-18T05:14:14.107Z,0
2018-02-18T05:14:54.674Z,0
2018-02-18T05:15:35.238Z,0
2018-02-18T05:16:15.819Z,0
2018-02-18T05:16:56.382Z,0
2018-02-18T05:17:36.945Z,0
2018-02-18T05:18:17.500Z,0
2018-02-18T05:18:58.063Z,0
2018-02-18T05:19:38.646Z,0
2018-02-18T05:20:19.213Z,0
2018-02-18T05:20:59.771Z,0
2018-02-18T05:21:40.346Z,0
2018-02-18T05:22:20.907Z,0
2018-02-18T05:23:01.462Z,0
2018-02-18T05:23:42.035Z,0
2018-02-18T05:24:22.593Z,0
2018-02-18T05:25:03.145Z,0
2018-02-18T05:25:43.724Z,0
2018-02-18T05:26:24.283Z,0
2018-02-18T05:27:04.846Z,0
2018-02-18T05:27:45.400Z,0
2018-02-18T05:28:25.961Z,0
2018-02-18T05:29:06.529Z,0
2018-02-18T05:29:47.112Z,0
2018-02-18T05:30:27.668Z,0
2018-02-18T05:31:08.233Z,0
2018-02-18T05:31:48.802Z,0
2018-02-18T05:32:29.356Z,0
2018-02-18T05:33:09.925Z,0
2018-02-18T05:33:50.478Z,0
2018-02-18T05:34:31.031Z,0
2018-02-18T05:35:11.583Z,0
2018-02-18T05:35:52.148Z,0
2018-02-18T05:36:32.707Z,0
2018-02-18T05:37:13.248Z,0
2018-02-18T05:37:53.810Z,0
2018-02-18T05:38:34.362Z,0
2018-02-18T05:39:14.932Z,0
2018-02-18T05:39:55.480Z,0
2018-02-18T05:40:36.033Z,0
2018-02-18T05:41:16.593Z,0
2018-02-18T05:41:57.177Z,0
2018-02-18T05:42:37.744Z,0
2018-02-18T05:43:18.304Z,0
2018-02-18T05:43:58.865Z,0
2018-02-18T05:44:39.434Z,0
2018-02-18T05:45:19.972Z,0
2018-02-18T05:46:00.537Z,0
2018-02-18T05:46:41.103Z,0
2018-02-18T05:47:21.655Z,0
2018-02-18T05:48:02.218Z,0
2018-02-18T05:48:42.791Z,0
2018-02-18T05:49:23.361Z,0
2018-02-18T05:50:03.921Z,0
2018-02-18T05:50:44.481Z,0
2018-02-18T05:51:25.045Z,0
2018-02-18T05:52:05.614Z,0
2018-02-18T05:52:46.160Z,0
2018-02-18T05:53:26.706Z,0
2018-02-18T05:54:07.258Z,0
2018-02-18T05:54:47.815Z,0
2018-02-18T05:55:28.375Z,0
2018-02-18T05:56:08.935Z,0
2018-02-18T05:56:49.501Z,0
2018-02-18T05:57:30.052Z,0
2018-02-18T05:58:10.606Z,0
2018-02-18T05:58:51.169Z,0
2018-02-18T05:59:31.726Z,0
2018-02-18T06:00:12.284Z,0
2018-02-18T06:00:53.575Z,0
2018-02-18T06:01:34.155Z,0
2018-02-18T06:02:14.719Z,0
2018-02-18T06:02:55.282Z,0
2018-02-18T06:03:35.832Z,0
2018-02-18T06:04:16.392Z,0
2018-02-18T06:04:56.937Z,0
2018-02-18T06:05:37.504Z,0
2018-02-18T06:06:18.102Z,0
2018-02-18T06:06:58.639Z,0
2018-02-18T06:07:39.202Z,0
2018-02-18T06:08:19.750Z,0
2018-02-18T06:09:00.313Z,0
2018-02-18T06:09:40.857Z,0
2018-02-18T06:10:21.436Z,0
2018-02-18T06:11:01.968Z,0
2018-02-18T06:11:42.531Z,0
2018-02-18T06:12:23.085Z,0
2018-02-18T06:13:03.655Z,0
2018-02-18T06:13:44.209Z,0
2018-02-18T06:14:24.767Z,0
2018-02-18T06:15:05.350Z,0
2018-02-18T06:15:45.916Z,0
2018-02-18T06:16:26.456Z,0
2018-02-18T06:17:07.007Z,0
2018-02-18T06:17:47.552Z,0
2018-02-18T06:18:28.083Z,0
2018-02-18T06:19:08.658Z,0
2018-02-18T06:19:49.249Z,0
2018-02-18T06:20:29.839Z,0
2018-02-18T06:21:10.313Z,0
2018-02-18T06:21:50.873Z,0
2018-02-18T06:22:31.432Z,0
2018-02-18T06:23:11.979Z,0
2018-02-18T06:23:52.536Z,0
2018-02-18T06:24:33.108Z,0
2018-02-18T06:25:13.656Z,0
2018-02-18T06:25:54.227Z,0
2018-02-18T06:26:34.782Z,0
2018-02-18T06:27:15.345Z,0
2018-02-18T06:27:55.904Z,0
2018-02-18T06:28:36.466Z,0
2018-02-18T06:29:17.023Z,0
2018-02-18T06:29:57.567Z,0
2018-02-18T06:30:38.137Z,0
2018-02-18T06:31:18.688Z,0
2018-02-18T06:31:59.263Z,0
2018-02-18T06:32:39.822Z,0
2018-02-18T06:33:20.380Z,0
2018-02-18T06:34:00.940Z,0
2018-02-18T06:34:41.503Z,0
2018-02-18T06:35:22.048Z,0
2018-02-18T06:36:02.604Z,0
2018-02-18T06:36:43.165Z,0
2018-02-18T06:37:23.728Z,0
2018-02-18T06:38:04.296Z,0
2018-02-18T06:38:44.839Z,5
2018-02-18T06:39:25.394Z,5
2018-02-18T06:40:05.953Z,5
2018-02-18T06:40:46.499Z,5
2018-02-18T06:41:27.058Z,5
2018-02-18T06:42:07.616Z,5
2018-02-18T06:42:48.176Z,5
2018-02-18T06:43:28.724Z,5
2018-02-18T06:44:09.296Z,5
2018-02-18T06:44:49.883Z,5
2018-02-18T06:45:30.442Z,5
2018-02-18T06:46:10.987Z,5
2018-02-18T06:46:51.544Z,5
2018-02-18T06:47:32.126Z,5
2018-02-18T06:48:12.681Z,5
2018-02-18T06:48:53.233Z,5
2018-02-18T06:49:33.796Z,5
2018-02-18T06:50:14.364Z,5
2018-02-18T06:50:54.923Z,10
2018-02-18T06:51:35.480Z,10
2018-02-18T06:52:16.045Z,10
2018-02-18T06:52:56.599Z,10
2018-02-18T06:53:37.153Z,10
2018-02-18T06:54:17.704Z,10
2018-02-18T06:54:58.262Z,10
2018-02-18T06:55:38.824Z,10
2018-02-18T06:56:19.380Z,10
2018-02-18T06:56:59.939Z,10
2018-02-18T06:57:40.500Z,15
2018-02-18T06:58:21.074Z,15
2018-02-18T06:59:01.640Z,15
2018-02-18T06:59:42.199Z,15
2018-02-18T07:00:22.776Z,15
2018-02-18T07:01:03.337Z,15
2018-02-18T07:01:43.899Z,15
2018-02-18T07:02:24.464Z,15
2018-02-18T07:03:05.028Z,20
2018-02-18T07:03:45.602Z,20
2018-02-18T07:04:26.145Z,20
2018-02-18T07:05:06.704Z,20
2018-02-18T07:05:47.252Z,20
2018-02-18T07:06:27.821Z,20
2018-02-18T07:07:08.381Z,20
2018-02-18T07:07:48.927Z,20
2018-02-18T07:08:29.480Z,20
2018-02-18T07:09:10.042Z,20
2018-02-18T07:09:50.586Z,20
2018-02-18T07:10:31.139Z,20
2018-02-18T07:11:11.721Z,25
2018-02-18T07:11:52.289Z,25
2018-02-18T07:12:32.824Z,25
2018-02-18T07:13:13.415Z,25
2018-02-18T07:13:53.973Z,25
2018-02-18T07:14:34.528Z,25
2018-02-18T07:15:15.078Z,25
2018-02-18T07:15:55.648Z,30
2018-02-18T07:16:36.218Z,30
2018-02-18T07:17:16.775Z,30
2018-02-18T07:17:57.321Z,35
2018-02-18T07:18:37.877Z,35
2018-02-18T07:19:18.434Z,35
2018-02-18T07:19:58.994Z,35
2018-02-18T07:20:39.559Z,35
2018-02-18T07:21:20.130Z,40
2018-02-18T07:22:00.689Z,40
2018-02-18T07:22:41.242Z,40
2018-02-18T07:23:21.781Z,40
2018-02-18T07:24:02.335Z,40
2018-02-18T07:24:42.889Z,35
2018-02-18T07:25:23.441Z,35
2018-02-18T07:26:03.979Z,40
2018-02-18T07:26:44.538Z,35
2018-02-18T07:27:25.086Z,35
2018-02-18T07:28:05.628Z,35
2018-02-18T07:28:46.198Z,40
2018-02-18T07:29:26.759Z,40
2018-02-18T07:30:07.351Z,40
2018-02-18T07:30:47.913Z,40
2018-02-18T07:31:28.461Z,45
2018-02-18T07:32:09.018Z,45
2018-02-18T07:32:49.576Z,45
2018-02-18T07:33:30.121Z,45
2018-02-18T07:34:10.688Z,45
2018-02-18T07:34:51.249Z,45
2018-02-18T07:35:31.802Z,45
2018-02-18T07:36:12.378Z,50
2018-02-18T07:36:52.922Z,50
2018-02-18T07:37:33.474Z,50
2018-02-18T07:38:14.035Z,50
2018-02-18T07:38:54.604Z,55
2018-02-18T07:39:35.166Z,55
2018-02-18T07:40:15.729Z,55
2018-02-18T07:40:56.287Z,55
2018-02-18T07:41:36.857Z,55
2018-02-18T07:42:17.402Z,60
2018-02-18T07:42:57.986Z,60
2018-02-18T07:43:38.691Z,60
2018-02-18T07:44:19.266Z,55
2018-02-18T07:44:59.823Z,55
2018-02-18T07:45:40.374Z,55
2018-02-18T07:46:20.932Z,60
2018-02-18T07:47:01.492Z,65
2018-02-18T07:47:42.052Z,65
2018-02-18T07:48:22.608Z,65
2018-02-18T07:49:03.159Z,70
2018-02-18T07:49:43.722Z,70
2018-02-18T07:50:24.263Z,75
2018-02-18T07:51:04.832Z,80
2018-02-18T07:51:45.439Z,75
2018-02-18T07:52:25.994Z,70
2018-02-18T07:53:06.553Z,75
2018-02-18T07:53:47.103Z,75
2018-02-18T07:54:27.664Z,80
2018-02-18T07:55:08.230Z,85
2018-02-18T07:55:48.788Z,85
2018-02-18T07:56:29.409Z,85
2018-02-18T07:57:09.960Z,85
2018-02-18T07:57:50.499Z,85
2018-02-18T07:58:31.037Z,90
2018-02-18T07:59:11.599Z,90
2018-02-18T07:59:52.155Z,95
2018-02-18T08:00:32.724Z,95
2018-02-18T08:01:13.283Z,95
2018-02-18T08:01:53.842Z,95
2018-02-18T08:02:34.395Z,95
2018-02-18T08:03:14.954Z,90
2018-02-18T08:03:55.502Z,90
2018-02-18T08:04:36.152Z,90
2018-02-18T08:05:16.708Z,95
2018-02-18T08:05:57.387Z,95
2018-02-18T08:06:37.971Z,90
2018-02-18T08:07:18.495Z,90
2018-02-18T08:07:59.071Z,90
2018-02-18T08:08:39.648Z,90
2018-02-18T08:09:20.207Z,90
2018-02-18T08:10:00.757Z,85
2018-02-18T08:10:41.424Z,90
2018-02-18T08:11:22.170Z,90
2018-02-18T08:12:02.695Z,85
2018-02-18T08:12:43.232Z,85
2018-02-18T08:13:23.999Z,85
2018-02-18T08:14:04.566Z,85
2018-02-18T08:14:45.140Z,90
2018-02-18T08:15:25.714Z,90
2018-02-18T08:16:06.257Z,90
2018-02-18T08:16:46.808Z,90
2018-02-18T08:17:27.380Z,90
2018-02-18T08:18:07.971Z,90
2018-02-18T08:18:48.555Z,90
2018-02-18T08:19:29.120Z,90
2018-02-18T08:20:09.695Z,90
2018-02-18T08:20:50.256Z,90
2018-02-18T08:21:30.835Z,90
2018-02-18T08:22:11.395Z,90
2018-02-18T08:22:51.954Z,90
2018-02-18T08:23:32.507Z,90
2018-02-18T08:24:13.077Z,90
2018-02-18T08:24:53.629Z,90
2018-02-18T08:25:34.199Z,90
2018-02-18T08:26:14.830Z,90
2018-02-18T08:27:00.783Z,90
2018-02-18T08:27:41.323Z,90
2018-02-18T08:28:21.886Z,90
2018-02-18T08:29:02.456Z,90
2018-02-18T08:29:42.999Z,90
2018-02-18T08:30:23.558Z,90
2018-02-18T08:31:04.108Z,90
2018-02-18T08:31:44.686Z,90
2018-02-18T08:32:25.235Z,90
2018-02-18T08:33:05.791Z,90
2018-02-18T08:33:46.345Z,90
2018-02-18T08:34:26.896Z,95
2018-02-18T08:35:07.470Z,95
2018-02-18T08:35:48.087Z,95
2018-02-18T08:36:28.586Z,95
2018-02-18T08:37:09.160Z,95
2018-02-18T08:37:49.712Z,95
2018-02-18T08:38:30.290Z,95
2018-02-18T08:39:10.878Z,95
2018-02-18T08:39:51.432Z,95
2018-02-18T08:40:32.007Z,95
2018-02-18T08:41:12.589Z,95
2018-02-18T08:41:53.143Z,95
2018-02-18T08:42:33.717Z,95
2018-02-18T08:43:14.548Z,95
2018-02-18T08:43:55.139Z,95
2018-02-18T08:44:35.761Z,95
2018-02-18T08:45:16.276Z,95
2018-02-18T08:45:56.835Z,100
2018-02-18T08:46:37.393Z,100
2018-02-18T08:47:17.991Z,100
2018-02-18T08:47:58.573Z,95
2018-02-18T08:48:39.115Z,100
2018-02-18T08:49:19.688Z,100
2018-02-18T08:50:00.272Z,100
2018-02-18T08:50:40.821Z,100
2018-02-18T08:51:21.400Z,95
2018-02-18T08:52:01.935Z,95
2018-02-18T08:52:42.553Z,95
2018-02-18T08:53:23.106Z,100
2018-02-18T08:54:03.673Z,100
2018-02-18T08:54:44.230Z,100
2018-02-18T08:55:24.788Z,105
2018-02-18T08:56:05.366Z,100
2018-02-18T08:56:45.919Z,95
2018-02-18T08:57:26.484Z,100
2018-02-18T08:58:07.032Z,100
2018-02-18T08:58:47.584Z,105
2018-02-18T08:59:28.153Z,100
2018-02-18T09:00:08.713Z,100
2018-02-18T09:00:49.283Z,100
2018-02-18T09:01:29.840Z,100
2018-02-18T09:02:10.392Z,100
2018-02-18T09:02:51.001Z,100
2018-02-18T09:03:31.593Z,100
2018-02-18T09:04:12.171Z,100
2018-02-18T09:04:52.741Z,100
2018-02-18T09:05:33.340Z,100
2018-02-18T09:06:13.919Z,100
2018-02-18T09:06:54.486Z,100
2018-02-18T09:07:35.041Z,100
2018-02-18T09:08:15.603Z,100
2018-02-18T09:08:56.156Z,100
2018-02-18T09:09:36.759Z,100
2018-02-18T09:10:17.342Z,100
2018-02-18T09:10:57.900Z,100
2018-02-18T09:11:38.467Z,100
2018-02-18T09:12:19.035Z,100
2018-02-18T09:12:59.584Z,100
2018-02-18T09:13:40.156Z,100
2018-02-18T09:14:20.712Z,100
2018-02-18T09:15:01.280Z,100
2018-02-18T09:15:41.832Z,100
2018-02-18T09:16:22.397Z,100
2018-02-18T09:17:02.984Z,100
2018-02-18T09:17:43.546Z,100
2018-02-18T09:18:24.092Z,100
2018-02-18T09:19:04.640Z,100
2018-02-18T09:19:45.185Z,100
2018-02-18T09:20:25.764Z,100
2018-02-18T09:21:06.335Z,100
2018-02-18T09:21:46.902Z,100
2018-02-18T09:22:27.458Z,100
2018-02-18T09:23:08.034Z,100
2018-02-18T09:23:48.613Z,95
2018-02-18T09:24:29.177Z,95
2018-02-18T09:25:09.734Z,95
2018-02-18T09:25:50.294Z,95
2018-02-18T09:26:30.846Z,95
2018-02-18T09:27:11.414Z,95
2018-02-18T09:27:51.973Z,100
2018-02-18T09:28:32.519Z,100
2018-02-18T09:29:13.082Z,100
2018-02-18T09:29:53.668Z,105
2018-02-18T09:30:34.238Z,105
2018-02-18T09:31:14.814Z,100
2018-02-18T09:31:55.355Z,100
2018-02-18T09:32:35.908Z,100
2018-02-18T09:33:16.454Z,100
2018-02-18T09:33:57.034Z,100
2018-02-18T09:34:37.608Z,100
2018-02-18T09:35:18.191Z,100
2018-02-18T09:35:58.734Z,100
2018-02-18T09:36:39.306Z,100
2018-02-18T09:37:19.863Z,105
2018-02-18T09:38:00.445Z,100
2018-02-18T09:38:41.003Z,100
2018-02-18T09:39:21.580Z,100
2018-02-18T09:40:02.144Z,100
2018-02-18T09:40:42.744Z,100
2018-02-18T09:41:23.293Z,100
2018-02-18T09:42:03.842Z,100
2018-02-18T09:42:44.405Z,100
2018-02-18T09:43:24.980Z,100
2018-02-18T09:44:05.536Z,100
2018-02-18T09:44:46.127Z,100
2018-02-18T09:45:26.683Z,100
2018-02-18T09:46:07.303Z,100
2018-02-18T09:46:47.883Z,100
2018-02-18T09:47:28.502Z,100
2018-02-18T09:48:09.071Z,100
2018-02-18T09:48:49.757Z,100
2018-02-18T09:49:30.294Z,105
2018-02-18T09:50:10.916Z,105
2018-02-18T09:50:51.506Z,110
2018-02-18T09:51:32.121Z,115
2018-02-18T09:52:12.716Z,115
2018-02-18T09:52:53.311Z,110